This is the latest recevied weather packets stored in our database for station/object WH6VH. If no packets are shown the sender has not sent any weather packets the latest 10 day(s).
| Time | Temp. | Humidity | Pressure | Rain* | Wind** | Luminosity | Snow |
|---|---|---|---|---|---|---|---|
| 1777505405 | 11.11° C | 63% | 1018.2 hPa | 0 mm | - | - | - |
| 1777504205 | 11.67° C | 62% | 1018.1 hPa | 0 mm | - | - | - |
| 1777501505 | 12.78° C | 68% | 1017.8 hPa | 0 mm | - | - | - |
| 1777499103 | 8.89° C | 81% | 1017.7 hPa | 0.76 mm | - | - | - |
| 1777497903 | 7.78° C | 73% | 1018.2 hPa | 0.76 mm | - | - | - |
| 1777497303 | 8.89° C | 69% | 1018.3 hPa | 0.76 mm | - | - | - |
| 1777496704 | 9.44° C | 67% | 1018.2 hPa | 0.51 mm | - | - | - |
| 1777496403 | 10° C | 72% | 1018 hPa | 0.25 mm | - | - | - |
| 1777495203 | 10° C | 71% | 1017.5 hPa | 0.25 mm | - | - | - |
| 1777493104 | 12.22° C | 52% | 1017.5 hPa | 0 mm | - | - | - |
| 1777492204 | 12.78° C | 51% | 1017.4 hPa | 0 mm | - | - | - |
| 1777488004 | 13.33° C | 44% | 1017.8 hPa | 0 mm | - | - | - |
| 1777486503 | 13.33° C | 48% | 1018.1 hPa | 0 mm | - | - | - |
| 1777473903 | 8.33° C | 73% | 1019.8 hPa | 0 mm | - | - | - |
| 1777473304 | 7.78° C | 75% | 1019.9 hPa | 0 mm | - | - | - |
| 1777471504 | 6.67° C | 80% | 1020.2 hPa | 0 mm | - | - | - |
| 1777470907 | 6.67° C | 82% | 1020.4 hPa | 0 mm | - | - | - |
| 1777470004 | 6.11° C | 83% | 1020.3 hPa | 0 mm | - | - | - |
| 1777467904 | 5.56° C | 86% | 1020.4 hPa | 0 mm | - | - | - |
| 1777466104 | 5° C | 86% | 1020.5 hPa | 0 mm | - | - | - |
| 1777464904 | 5° C | 86% | 1020.5 hPa | 0 mm | - | - | - |
| 1777463404 | 5° C | 86% | 1020.9 hPa | 0 mm | - | - | - |
| 1777461604 | 5° C | 85% | 1021.1 hPa | 0 mm | - | - | - |
| 1777460103 | 5° C | 84% | 1020.9 hPa | 0.25 mm | - | - | - |
| 1777456504 | 5.56° C | 80% | 1021.1 hPa | 0 mm | - | - | - |
* Rain latest hour (hover to see other rain measurements)
** Current wind speed in m/s (hover to see current wind gust speed)